Terminal Aerodrome Forecast
Issued by NWS

Home | Current Version | Previous Version | Text Only | Print | Product List | Glossary On
Versions: 1 2 3 4 5 6 7 8 9 10 11 12 13 14 15 16 17 18 19 20 21 22 23
000
FTUS43 KBIS 032338
TAFJMS
TAF
KJMS 032338Z 0400/0424 17014KT P6SM SCT150
     FM040300 15010KT P6SM SCT120
     FM041200 14008KT 5SM BR SCT010 BKN050
     FM041500 16013KT P6SM -SHRA BKN050=

USA.gov is the U.S. government's official web portal to all federal, state and local government web resources and services.